FMMINFNA

Guest
Details From FMMI - Ivato
To NFNA - Nausori Intl
Flight Number -
Tags Generated
Created
Modified
Stats Distance 7,176 nm / 13,289 km
Max Altitude 0 ft / 0 m
Waypoints 6
Social Downloads 0
Likes 0
Share VATSIM

Download

Looking for another format? Having issues loading an existing format? Contact us
Advertisement - Login to hide

Notes

Generated

Route

FMMI TIEGA WWLWG CORKY NA NFNA

ID Type Via Altitude Latitude Longitude Leg Dist Tot Dist Heading (true) Name
O FMMI APT - 0 ft / 0 m -18.79479˚ 47.46427˚ - 0 nm - -
TIEGA FIX - 0 ft / 0 m -35.05833˚ 142.21000˚ 4987 nm 4987 nm 125° / 72° -
WWLWG FIX - 0 ft / 0 m -33.83027˚ 146.95816˚ 246 nm 5234 nm 74° / 71° -
CORKY FIX - 0 ft / 0 m -32.49861˚ 150.91250˚ 214 nm 5448 nm 69° / 67° -
NA NDB - 0 ft / 0 m -18.04583˚ 178.56250˚ 1726 nm 7174 nm 67° / 54° NAUSORI NDB
O NFNA APT - 0 ft / 0 m -18.04050˚ 178.55091˚ 0 nm 7175 nm 296° / 296° -

Altitude Profile

Advertisement - Login to hide

Weather


0- 5 10 15 20 25 30 35+ Temperature / ° C

Clouds and Precipitation
Forecast for 2017-12-13 06:00 UTC. Updated 24 minutes ago

Ground ~20,000 ft ~40,000 ft Winds

FMMI

Details ICAO FMMI (TNR)
Name IVATO
Region Comoros, Mayotte, Réunion and Madagascar
Timezone Indian/Antananarivo (UTC+3.0)
Stats Elevation 4,198 ft / 1,280 m (AMSL)
Location -18.796950° 47.478806°
Runways 1
Magnetic Variation 15.160° W

METAR

FMMI 130500Z VRB03KT 9999 SCT017 BKN020 21/19 Q1021 NOSIG

Decode

TAF

TAF FMMI 122300Z 1300/1406 VRB03KT 9999 FEW007 SCT017 BKN020 BECMG 1307/1310 28010KT PROB40 TEMPO 1310/1322 4000 TSRA BKN015CB SCT020 BECMG 1317/1320 VRB03KT

Decode

Departure Runways

ID Width Length Bearing (true) Bearing (mag) Surface Threshold Offset Overrun Length
11 148 ft / 45 m 10,167 ft / 3,099 m 98.92° 114.08° Asphalt 0 ft / 0 m 90 ft / 27 m
29 148 ft / 45 m 10,167 ft / 3,099 m 278.91° 294.07° Asphalt 0 ft / 0 m 90 ft / 27 m

NFNA

Details ICAO NFNA (SUV)
Name Nausori Intl
Region Fiji and Tonga
Timezone Pacific/Fiji (UTC+13.0)
Stats Elevation 17 ft / 5 m (AMSL)
Location -18.043328° 178.559247°
Runways 1
Magnetic Variation 12.527° E

METAR

NFNA 130500Z 11006KT 9999 SCT020 BKN048 27/23 Q1008

Decode

TAF

TAF NFNA 122313Z 1300/1324 11008KT 9999 SCT018 BKN045 PROB40 TEMPO 1303/1315 6000 SHRA BKN018

Decode

Destination Runways

ID Width Length Bearing (true) Bearing (mag) Surface Threshold Offset Overrun Length
10 98 ft / 30 m 6,130 ft / 1,869 m 109.30° 96.77° Asphalt 404 ft / 123 m 0 ft / 0 m
28 98 ft / 30 m 6,130 ft / 1,869 m 289.30° 276.77° Asphalt 0 ft / 0 m 295 ft / 90 m